createdAt,value
2018-09-05T00:01:59.397Z,95245.63
2018-09-05T00:04:27.759Z,95243.38
2018-09-05T00:06:56.087Z,95241.80
2018-09-05T00:09:24.359Z,95241.06
2018-09-05T00:11:52.644Z,95235.41
2018-09-05T00:14:20.959Z,95239.74
2018-09-05T00:16:49.253Z,95236.64
2018-09-05T00:19:17.604Z,95238.97
2018-09-05T00:21:45.940Z,95234.38
2018-09-05T00:24:14.281Z,95237.66
2018-09-05T00:26:42.670Z,95231.45
2018-09-05T00:29:11.095Z,95234.41
2018-09-05T00:31:39.486Z,95234.12
2018-09-05T00:34:07.851Z,95229.28
2018-09-05T00:36:36.202Z,95230.53
2018-09-05T00:39:07.007Z,95235.48
2018-09-05T00:41:35.353Z,95228.45
2018-09-05T00:44:03.838Z,95226.09
2018-09-05T00:46:32.197Z,95228.00
2018-09-05T00:49:00.984Z,95228.56
2018-09-05T00:51:29.366Z,95219.61
2018-09-05T00:53:57.679Z,95221.92
2018-09-05T00:56:26.054Z,95213.83
2018-09-05T00:58:54.487Z,95220.59
2018-09-05T01:01:22.877Z,95216.36
2018-09-05T01:03:51.306Z,95216.55
2018-09-05T01:06:19.610Z,95216.31
2018-09-05T01:08:47.984Z,95215.80
2018-09-05T01:11:16.398Z,95212.94
2018-09-05T01:13:44.839Z,95216.20
2018-09-05T01:16:13.274Z,95218.16
2018-09-05T01:18:41.762Z,95218.78
2018-09-05T01:21:10.194Z,95216.33
2018-09-05T01:23:38.691Z,95219.29
2018-09-05T01:26:07.068Z,95215.88
2018-09-05T01:28:35.448Z,95213.77
2018-09-05T01:31:03.758Z,95217.98
2018-09-05T01:33:33.470Z,95218.20
2018-09-05T01:36:07.082Z,95221.72
2018-09-05T01:38:35.502Z,95213.50
2018-09-05T01:41:03.877Z,95217.31
2018-09-05T01:43:32.274Z,95217.82
2018-09-05T01:46:00.786Z,95216.95
2018-09-05T01:48:29.204Z,95227.48
2018-09-05T01:50:57.542Z,95218.77
2018-09-05T01:53:25.893Z,95214.31
2018-09-05T01:55:54.214Z,95214.94
2018-09-05T01:58:22.608Z,95211.47
2018-09-05T02:00:50.950Z,95212.58
2018-09-05T02:03:19.287Z,95216.41
2018-09-05T02:05:47.617Z,95204.86
2018-09-05T02:08:15.919Z,95215.25
2018-09-05T02:10:44.275Z,95213.80
2018-09-05T02:13:12.702Z,95208.73
2018-09-05T02:15:41.077Z,95208.72
2018-09-05T02:18:09.627Z,95209.23
2018-09-05T02:20:37.969Z,95213.78
2018-09-05T02:23:06.341Z,95215.82
2018-09-05T02:25:34.635Z,95206.33
2018-09-05T02:28:03.019Z,95207.73
2018-09-05T02:30:31.387Z,95204.39
2018-09-05T02:32:59.680Z,95202.18
2018-09-05T02:35:28.073Z,95201.70
2018-09-05T02:37:56.438Z,95207.13
2018-09-05T02:40:24.976Z,95207.33
2018-09-05T02:42:53.369Z,95201.16
2018-09-05T02:45:21.706Z,95200.89
2018-09-05T02:47:50.087Z,95198.94
2018-09-05T02:50:18.383Z,95202.72
2018-09-05T02:52:46.723Z,95197.89
2018-09-05T02:55:20.387Z,95203.73
2018-09-05T02:57:48.713Z,95202.80
2018-09-05T03:00:29.134Z,95201.81
2018-09-05T03:02:57.539Z,95206.94
2018-09-05T03:05:25.938Z,95207.34
2018-09-05T03:07:54.389Z,95204.51
2018-09-05T03:10:22.823Z,95214.77
2018-09-05T03:12:51.251Z,95213.55
2018-09-05T03:15:19.737Z,95207.90
2018-09-05T03:17:48.129Z,95210.60
2018-09-05T03:20:16.577Z,95209.86
2018-09-05T03:22:44.879Z,95208.38
2018-09-05T03:25:13.219Z,95214.06
2018-09-05T03:27:41.660Z,95210.83
2018-09-05T03:30:10.108Z,95209.55
2018-09-05T03:32:38.569Z,95209.72
2018-09-05T03:35:06.981Z,95208.84
2018-09-05T03:37:35.480Z,95212.33
2018-09-05T03:40:03.829Z,95213.84
2018-09-05T03:42:32.210Z,95212.92
2018-09-05T03:45:00.618Z,95209.28
2018-09-05T03:47:29.149Z,95209.82
2018-09-05T03:49:57.581Z,95209.24
2018-09-05T03:52:26.049Z,95211.91
2018-09-05T03:54:54.374Z,95214.70
2018-09-05T03:57:22.751Z,95212.77
2018-09-05T03:59:51.107Z,95219.27
2018-09-05T04:02:19.492Z,95213.17
2018-09-05T04:04:47.908Z,95219.23
2018-09-05T04:07:16.304Z,95216.51
2018-09-05T04:09:44.727Z,95222.95
2018-09-05T04:12:13.159Z,95221.72
2018-09-05T04:14:41.525Z,95219.35
2018-09-05T04:17:12.827Z,95216.80
2018-09-05T04:19:47.986Z,95220.17
2018-09-05T04:22:16.387Z,95218.92
2018-09-05T04:24:44.689Z,95214.91
2018-09-05T04:27:13.073Z,95212.34
2018-09-05T04:29:41.378Z,95212.65
2018-09-05T04:32:09.646Z,95209.39
2018-09-05T04:34:40.845Z,95212.67
2018-09-05T04:37:12.477Z,95212.25
2018-09-05T04:39:40.784Z,95215.59
2018-09-05T04:42:09.232Z,95213.25
2018-09-05T04:44:37.504Z,95211.44
2018-09-05T04:47:05.806Z,95216.13
2018-09-05T04:49:34.104Z,95218.64
2018-09-05T04:52:02.514Z,95219.22
2018-09-05T04:54:30.919Z,95215.40
2018-09-05T04:56:59.183Z,95219.30
2018-09-05T04:59:31.048Z,95221.62
2018-09-05T05:01:59.338Z,95221.85
2018-09-05T05:04:27.815Z,95215.87
2018-09-05T05:06:56.056Z,95216.68
2018-09-05T05:09:24.338Z,95214.20
2018-09-05T05:11:52.654Z,95217.98
2018-09-05T05:14:20.951Z,95217.38
2018-09-05T05:16:49.240Z,95222.71
2018-09-05T05:19:17.616Z,95217.75
2018-09-05T05:21:45.895Z,95219.98
2018-09-05T05:24:14.198Z,95221.42
2018-09-05T05:26:42.515Z,95221.92
2018-09-05T05:29:10.806Z,95221.17
2018-09-05T05:31:39.282Z,95226.66
2018-09-05T05:34:07.546Z,95228.76
2018-09-05T05:36:35.823Z,95223.77
2018-09-05T05:39:06.188Z,95224.44
2018-09-05T05:41:34.429Z,95222.16
2018-09-05T05:44:02.686Z,95221.30
2018-09-05T05:46:30.979Z,95224.53
2018-09-05T05:48:59.242Z,95224.69
2018-09-05T05:51:27.499Z,95226.02
2018-09-05T05:53:55.748Z,95226.62
2018-09-05T05:56:24.080Z,95231.69
2018-09-05T05:58:52.339Z,95232.17
2018-09-05T06:01:20.601Z,95233.11
2018-09-05T06:03:49.024Z,95232.14
2018-09-05T06:06:17.407Z,95236.70
2018-09-05T06:08:45.618Z,95236.95
2018-09-05T06:11:13.904Z,95243.48
2018-09-05T06:13:42.194Z,95242.77
2018-09-05T06:16:10.507Z,95241.88
2018-09-05T06:18:39.452Z,95250.05
2018-09-05T06:21:07.816Z,95244.26
2018-09-05T06:23:36.019Z,95243.84
2018-09-05T06:26:04.359Z,95236.91
2018-09-05T06:28:32.763Z,95239.64
2018-09-05T06:31:02.178Z,95243.61
2018-09-05T06:33:30.443Z,95240.70
2018-09-05T06:35:58.767Z,95242.53
2018-09-05T06:38:27.060Z,95237.17
2018-09-05T06:40:55.388Z,95235.28
2018-09-05T06:43:23.622Z,95238.63
2018-09-05T06:45:51.875Z,95241.52
2018-09-05T06:48:20.133Z,95240.38
2018-09-05T06:50:48.420Z,95236.97
2018-09-05T06:53:17.002Z,95240.20
2018-09-05T06:55:45.258Z,95241.66
2018-09-05T06:58:13.548Z,95236.53
2018-09-05T07:00:41.778Z,95239.91
2018-09-05T07:03:10.070Z,95235.09
2018-09-05T07:05:38.335Z,95231.45
2018-09-05T07:08:06.699Z,95235.30
2018-09-05T07:10:34.956Z,95230.77
2018-09-05T07:13:03.235Z,95228.44
2018-09-05T07:15:31.518Z,95234.72
2018-09-05T07:17:59.780Z,95234.59
2018-09-05T07:20:28.100Z,95234.14
2018-09-05T07:22:56.370Z,95240.02
2018-09-05T07:25:24.623Z,95233.26
2018-09-05T07:27:52.897Z,95233.69
2018-09-05T07:30:21.209Z,95236.66
2018-09-05T07:32:49.454Z,95235.78
2018-09-05T07:35:17.906Z,95236.05
2018-09-05T07:37:46.178Z,95235.32
2018-09-05T07:40:14.564Z,95238.53
2018-09-05T07:42:42.834Z,95234.12
2018-09-05T07:45:11.097Z,95241.09
2018-09-05T07:47:39.391Z,95238.90
2018-09-05T07:50:07.981Z,95243.13
2018-09-05T07:52:36.294Z,95242.37
2018-09-05T07:55:04.569Z,95239.19
2018-09-05T07:57:32.892Z,95238.79
2018-09-05T08:00:01.184Z,95234.19
2018-09-05T08:02:29.456Z,95237.80
2018-09-05T08:04:57.748Z,95242.30
2018-09-05T08:07:26.084Z,95235.11
2018-09-05T08:09:54.355Z,95241.98
2018-09-05T08:12:22.615Z,95236.42
2018-09-05T08:14:50.894Z,95234.94
2018-09-05T08:17:19.265Z,95232.83
2018-09-05T08:19:47.575Z,95233.36
2018-09-05T08:22:15.822Z,95233.79
2018-09-05T08:24:44.104Z,95232.39
2018-09-05T08:27:12.443Z,95231.89
2018-09-05T08:29:40.829Z,95230.48
2018-09-05T08:32:09.240Z,95228.41
2018-09-05T08:34:37.519Z,95229.97
2018-09-05T08:37:05.917Z,95223.24
2018-09-05T08:39:34.066Z,95226.88
2018-09-05T08:42:02.480Z,95225.66
2018-09-05T08:44:30.895Z,95224.63
2018-09-05T08:46:59.367Z,95219.33
2018-09-05T08:49:27.658Z,95218.33
2018-09-05T08:51:56.078Z,95217.29
2018-09-05T08:54:24.504Z,95219.58
2018-09-05T08:56:52.851Z,95216.56
2018-09-05T08:59:21.192Z,95215.14
2018-09-05T09:01:49.563Z,95212.49
2018-09-05T09:04:17.910Z,95213.47
2018-09-05T09:06:46.276Z,95213.31
2018-09-05T09:09:14.626Z,95217.32
2018-09-05T09:11:43.010Z,95206.79
2018-09-05T09:14:11.383Z,95207.66
2018-09-05T09:16:39.806Z,95209.45
2018-09-05T09:19:08.195Z,95211.96
2018-09-05T09:21:36.571Z,95205.83
2018-09-05T09:24:04.994Z,95200.17
2018-09-05T09:26:33.383Z,95195.47
2018-09-05T09:29:01.852Z,95197.03
2018-09-05T09:31:30.231Z,95197.80
2018-09-05T09:33:58.618Z,95196.80
2018-09-05T09:36:26.979Z,95195.41
2018-09-05T09:38:55.594Z,95195.75
2018-09-05T09:41:23.955Z,95187.15
2018-09-05T09:43:52.347Z,95190.56
2018-09-05T09:46:20.719Z,95199.11
2018-09-05T09:48:49.118Z,95194.92
2018-09-05T09:51:20.343Z,95195.50
2018-09-05T09:53:48.699Z,95197.38
2018-09-05T09:56:17.122Z,95189.25
2018-09-05T09:58:45.902Z,95186.77
2018-09-05T10:01:20.050Z,95189.84
2018-09-05T10:03:53.675Z,95181.79
2018-09-05T10:06:26.287Z,95176.25
2018-09-05T10:08:59.878Z,95174.10
2018-09-05T10:11:33.455Z,95178.88
2018-09-05T10:14:07.187Z,95172.53
2018-09-05T10:16:44.805Z,95173.11
2018-09-05T10:19:13.318Z,95168.87
2018-09-05T10:21:41.564Z,95164.62
2018-09-05T10:24:10.457Z,95164.44
2018-09-05T10:26:38.792Z,95170.40
2018-09-05T10:29:07.048Z,95166.93
2018-09-05T10:31:35.371Z,95169.80
2018-09-05T10:34:03.591Z,95169.16
2018-09-05T10:36:31.871Z,95176.31
2018-09-05T10:39:00.123Z,95162.17
2018-09-05T10:41:28.395Z,95171.38
2018-09-05T10:43:56.651Z,95166.39
2018-09-05T10:46:24.945Z,95164.06
2018-09-05T10:48:53.310Z,95162.69
2018-09-05T10:51:25.900Z,95160.58
2018-09-05T10:53:54.285Z,95159.65
2018-09-05T10:56:22.678Z,95161.61
2018-09-05T10:58:51.159Z,95161.20
2018-09-05T11:01:19.722Z,95156.01
2018-09-05T11:03:48.307Z,95156.23
2018-09-05T11:06:16.737Z,95150.75
2018-09-05T11:08:45.127Z,95151.38
2018-09-05T11:11:13.558Z,95149.48
2018-09-05T11:13:41.962Z,95147.59
2018-09-05T11:16:10.454Z,95152.52
2018-09-05T11:18:38.992Z,95141.82
2018-09-05T11:21:07.463Z,95139.16
2018-09-05T11:23:35.755Z,95135.88
2018-09-05T11:26:04.139Z,95140.34
2018-09-05T11:28:32.638Z,95139.92
2018-09-05T11:31:01.041Z,95137.34
2018-09-05T11:33:29.402Z,95137.19
2018-09-05T11:35:57.882Z,95141.70
2018-09-05T11:38:26.489Z,95134.61
2018-09-05T11:40:55.031Z,95128.31
2018-09-05T11:43:25.425Z,95131.52
2018-09-05T11:45:54.223Z,95125.96
2018-09-05T11:48:22.640Z,95135.15
2018-09-05T11:50:52.972Z,95128.08
2018-09-05T11:53:21.716Z,95126.39
2018-09-05T11:55:50.415Z,95122.16
2018-09-05T11:58:19.317Z,95123.48
2018-09-05T12:00:47.954Z,95121.15
2018-09-05T12:03:18.185Z,95122.61
2018-09-05T12:05:46.555Z,95121.70
2018-09-05T12:08:16.249Z,95111.83
2018-09-05T12:10:44.809Z,95117.91
2018-09-05T12:13:13.108Z,95109.73
2018-09-05T12:15:41.494Z,95110.61
2018-09-05T12:18:10.302Z,95107.18
2018-09-05T12:23:21.943Z,95111.52
2018-09-05T12:25:50.241Z,95102.74
2018-09-05T12:28:18.526Z,95108.00
2018-09-05T12:30:46.853Z,95109.31
2018-09-05T12:33:15.148Z,95102.58
2018-09-05T12:35:43.425Z,95109.73
2018-09-05T12:38:11.727Z,95104.22
2018-09-05T12:40:40.379Z,95104.16
2018-09-05T12:43:08.854Z,95101.50
2018-09-05T12:45:37.156Z,95101.69
2018-09-05T12:48:05.469Z,95105.38
2018-09-05T12:50:33.718Z,95095.92
2018-09-05T12:53:02.003Z,95093.98
2018-09-05T12:55:30.285Z,95087.67
2018-09-05T12:57:58.529Z,95084.25
2018-09-05T13:00:26.838Z,95077.16
2018-09-05T13:02:55.104Z,95077.55
2018-09-05T13:05:23.410Z,95077.54
2018-09-05T13:07:51.759Z,95080.67
2018-09-05T13:10:20.030Z,95080.58
2018-09-05T13:12:48.299Z,95081.34
2018-09-05T13:15:16.575Z,95075.09
2018-09-05T13:17:44.825Z,95077.55
2018-09-05T13:20:18.746Z,95082.08
2018-09-05T13:22:47.120Z,95074.77
2018-09-05T13:25:15.327Z,95079.93
2018-09-05T13:30:25.844Z,95076.75
2018-09-05T13:32:54.334Z,95072.46
2018-09-05T13:35:22.837Z,95073.98
2018-09-05T13:37:51.287Z,95074.34
2018-09-05T13:40:19.809Z,95066.70
2018-09-05T13:42:49.211Z,95071.84
2018-09-05T13:45:17.657Z,95072.03
2018-09-05T13:47:54.306Z,95069.82
2018-09-05T13:50:22.742Z,95069.15
2018-09-05T13:52:53.027Z,95067.05
2018-09-05T13:55:21.323Z,95064.53
2018-09-05T13:57:49.974Z,95069.48
2018-09-05T14:00:18.347Z,95064.28
2018-09-05T14:02:47.586Z,95063.18
2018-09-05T14:05:16.621Z,95058.53
2018-09-05T14:07:45.084Z,95054.20
2018-09-05T14:10:14.338Z,95060.92
2018-09-05T14:12:42.731Z,95052.22
2018-09-05T14:15:11.078Z,95052.55
2018-09-05T14:17:39.500Z,95044.98
2018-09-05T14:20:08.845Z,95042.75
2018-09-05T14:22:37.196Z,95041.85
2018-09-05T14:25:06.606Z,95034.86
2018-09-05T14:27:35.001Z,95041.00
2018-09-05T14:30:03.231Z,95035.14
2018-09-05T14:32:31.621Z,95033.69
2018-09-05T14:35:01.054Z,95033.09
2018-09-05T14:37:29.334Z,95037.30
2018-09-05T14:39:57.619Z,95038.74
2018-09-05T14:42:26.079Z,95034.33
2018-09-05T14:44:56.492Z,95037.91
2018-09-05T14:47:24.912Z,95028.12
2018-09-05T14:49:53.393Z,95032.70
2018-09-05T14:52:21.842Z,95030.59
2018-09-05T14:54:50.286Z,95036.53
2018-09-05T14:57:18.674Z,95031.28
2018-09-05T14:59:49.148Z,95033.75
2018-09-05T15:02:17.543Z,95034.77
2018-09-05T15:04:46.927Z,95035.77
2018-09-05T15:07:15.240Z,95031.80
2018-09-05T15:09:43.654Z,95036.81
2018-09-05T15:12:12.226Z,95027.91
2018-09-05T15:14:42.688Z,95026.22
2018-09-05T15:17:11.147Z,95020.66
2018-09-05T15:19:39.413Z,95026.42
2018-09-05T15:22:07.708Z,95029.64
2018-09-05T15:24:36.224Z,95025.16
2018-09-05T15:27:04.723Z,95020.28
2018-09-05T15:29:33.023Z,95019.79
2018-09-05T15:32:01.646Z,95021.55
2018-09-05T15:34:29.968Z,95021.38
2018-09-05T15:36:58.341Z,95025.16
2018-09-05T15:39:28.824Z,95023.17
2018-09-05T15:41:57.061Z,95022.83
2018-09-05T15:44:25.405Z,95023.40
2018-09-05T15:46:53.807Z,95017.89
2018-09-05T15:49:23.112Z,95020.38
2018-09-05T15:51:55.971Z,95018.12
2018-09-05T15:54:25.309Z,95012.60
2018-09-05T15:56:53.903Z,95015.91
2018-09-05T15:59:22.807Z,95008.47
2018-09-05T16:01:51.495Z,95010.14
2018-09-05T16:04:19.906Z,95005.84
2018-09-05T16:06:48.263Z,95005.70
2018-09-05T16:09:16.686Z,94997.30
2018-09-05T16:11:45.523Z,95009.80
2018-09-05T16:14:18.705Z,95005.53
2018-09-05T16:16:47.105Z,95001.73
2018-09-05T16:19:16.527Z,94997.95
2018-09-05T16:21:45.020Z,94999.08
2018-09-05T16:24:14.363Z,95002.13
2018-09-05T16:26:42.768Z,95002.27
2018-09-05T16:29:12.227Z,94998.38
2018-09-05T16:31:40.635Z,94994.19
2018-09-05T16:34:09.455Z,94995.87
2018-09-05T16:36:37.770Z,95000.44
2018-09-05T16:39:08.829Z,94993.08
2018-09-05T16:41:37.599Z,95001.13
2018-09-05T16:44:05.935Z,94996.44
2018-09-05T16:46:34.288Z,94998.35
2018-09-05T16:49:02.741Z,94994.64
2018-09-05T16:51:31.192Z,94994.11
2018-09-05T16:54:05.896Z,94995.06
2018-09-05T16:56:34.790Z,94997.73
2018-09-05T16:59:04.202Z,94996.35
2018-09-05T17:01:32.563Z,94996.58
2018-09-05T17:04:05.872Z,94995.06
2018-09-05T17:06:34.287Z,95001.19
2018-09-05T17:09:02.716Z,94999.47
2018-09-05T17:11:31.139Z,94999.35
2018-09-05T17:13:59.532Z,94998.26
2018-09-05T17:16:27.938Z,95004.12
2018-09-05T17:18:56.445Z,94998.03
2018-09-05T17:21:25.037Z,94996.62
2018-09-05T17:23:53.451Z,94999.30
2018-09-05T17:26:21.866Z,95004.36
2018-09-05T17:28:53.207Z,95004.33
2018-09-05T17:31:21.646Z,95008.27
2018-09-05T17:33:50.263Z,95005.03
2018-09-05T17:36:18.728Z,95011.22
2018-09-05T17:38:51.087Z,95010.73
2018-09-05T17:41:19.460Z,95007.25
2018-09-05T17:44:01.091Z,95006.84
2018-09-05T17:46:29.479Z,95008.41
2018-09-05T17:48:57.918Z,95008.50
2018-09-05T17:51:26.314Z,95011.20
2018-09-05T17:53:56.718Z,95015.41
2018-09-05T17:56:25.368Z,95021.12
2018-09-05T17:58:53.774Z,95016.89
2018-09-05T18:01:23.505Z,95016.80
2018-09-05T18:03:51.876Z,95023.98
2018-09-05T18:08:59.444Z,95027.04
2018-09-05T18:11:27.842Z,95030.14
2018-09-05T18:13:56.408Z,95031.02
2018-09-05T18:16:24.788Z,95033.92
2018-09-05T18:18:53.204Z,95034.99
2018-09-05T18:21:21.689Z,95035.34
2018-09-05T18:23:50.120Z,95035.34
2018-09-05T18:26:18.663Z,95034.92
2018-09-05T18:28:49.101Z,95035.48
2018-09-05T18:31:18.382Z,95041.48
2018-09-05T18:33:47.692Z,95037.77
2018-09-05T18:36:16.098Z,95041.63
2018-09-05T18:38:45.542Z,95036.45
2018-09-05T18:41:14.003Z,95033.59
2018-09-05T18:43:42.368Z,95038.81
2018-09-05T18:46:10.827Z,95038.75
2018-09-05T18:48:39.274Z,95040.45
2018-09-05T18:51:07.690Z,95038.54
2018-09-05T18:53:36.073Z,95036.83
2018-09-05T18:56:04.492Z,95032.62
2018-09-05T18:58:32.879Z,95027.97
2018-09-05T19:01:01.316Z,95037.17
2018-09-05T19:03:29.685Z,95029.97
2018-09-05T19:05:58.124Z,95034.16
2018-09-05T19:08:27.619Z,95028.06
2018-09-05T19:10:56.091Z,95032.16
2018-09-05T19:13:24.578Z,95030.94
2018-09-05T19:15:53.052Z,95028.79
2018-09-05T19:18:21.531Z,95028.55
2018-09-05T19:20:49.950Z,95022.53
2018-09-05T19:23:18.757Z,95023.66
2018-09-05T19:25:47.251Z,95028.66
2018-09-05T19:28:15.702Z,95024.77
2018-09-05T19:30:44.122Z,95023.34
2018-09-05T19:33:12.545Z,95024.78
2018-09-05T19:35:41.027Z,95031.69
2018-09-05T19:38:09.772Z,95026.86
2018-09-05T19:40:46.451Z,95026.78
2018-09-05T19:43:14.910Z,95029.67
2018-09-05T19:45:43.326Z,95024.56
2018-09-05T19:48:11.822Z,95022.34
2018-09-05T19:50:40.248Z,95019.70
2018-09-05T19:53:08.684Z,95026.11
2018-09-05T19:55:37.114Z,95022.91
2018-09-05T19:58:05.520Z,95022.25
2018-09-05T20:00:33.970Z,95024.30
2018-09-05T20:03:02.335Z,95027.20
2018-09-05T20:05:30.759Z,95024.91
2018-09-05T20:07:59.240Z,95025.95
2018-09-05T20:10:27.634Z,95019.36
2018-09-05T20:12:56.227Z,95017.16
2018-09-05T20:15:24.701Z,95021.44
2018-09-05T20:17:53.028Z,95014.29
2018-09-05T20:20:21.544Z,95017.82
2018-09-05T20:22:50.136Z,95021.33
2018-09-05T20:25:18.565Z,95016.80
2018-09-05T20:27:47.537Z,95023.75
2018-09-05T20:30:15.946Z,95012.97
2018-09-05T20:32:44.371Z,95018.56
2018-09-05T20:35:12.782Z,95015.17
2018-09-05T20:37:41.370Z,95011.65
2018-09-05T20:40:09.772Z,95014.72
2018-09-05T20:42:38.146Z,95015.16
2018-09-05T20:45:10.439Z,95012.20
2018-09-05T20:47:38.840Z,95012.59
2018-09-05T20:50:07.271Z,95012.26
2018-09-05T20:52:35.717Z,95014.92
2018-09-05T20:55:04.175Z,95015.83
2018-09-05T20:57:32.605Z,95013.15
2018-09-05T21:00:00.968Z,95009.72
2018-09-05T21:02:29.354Z,95013.26
2018-09-05T21:04:57.746Z,95013.69
2018-09-05T21:07:26.075Z,95003.14
2018-09-05T21:09:54.444Z,95006.22
2018-09-05T21:12:22.820Z,95008.31
2018-09-05T21:14:51.231Z,95003.28
2018-09-05T21:17:19.643Z,95001.82
2018-09-05T21:19:48.125Z,95006.27
2018-09-05T21:22:17.410Z,95005.04
2018-09-05T21:24:45.853Z,95006.02
2018-09-05T21:27:14.385Z,95001.67
2018-09-05T21:29:42.984Z,94996.18
2018-09-05T21:32:11.282Z,94995.75
2018-09-05T21:34:39.688Z,95002.48
2018-09-05T21:37:08.311Z,95000.94
2018-09-05T21:39:36.671Z,94998.91
2018-09-05T21:42:05.058Z,95005.17
2018-09-05T21:44:33.468Z,95005.48
2018-09-05T21:47:02.092Z,95002.77
2018-09-05T21:49:30.404Z,95008.95
2018-09-05T21:51:58.799Z,95006.59
2018-09-05T21:54:28.166Z,95003.27
2018-09-05T21:56:56.588Z,94998.30
2018-09-05T21:59:25.233Z,94995.77
2018-09-05T22:01:53.715Z,94997.24
2018-09-05T22:04:22.098Z,95001.37
2018-09-05T22:06:50.588Z,95003.41
2018-09-05T22:09:19.043Z,94995.49
2018-09-05T22:11:47.416Z,94998.59
2018-09-05T22:14:15.764Z,94999.58
2018-09-05T22:16:44.091Z,94992.13
2018-09-05T22:19:12.624Z,95001.84
2018-09-05T22:21:41.238Z,95001.50
2018-09-05T22:24:09.845Z,94997.24
2018-09-05T22:26:38.302Z,94997.06
2018-09-05T22:29:06.801Z,94999.47
2018-09-05T22:31:35.169Z,94992.69
2018-09-05T22:34:03.620Z,94992.35
2018-09-05T22:36:32.043Z,94988.21
2018-09-05T22:39:00.508Z,94992.77
2018-09-05T22:41:29.077Z,94984.95
2018-09-05T22:44:08.900Z,94985.95
2018-09-05T22:46:48.746Z,94988.92
2018-09-05T22:49:59.354Z,94986.46
2018-09-05T22:52:40.917Z,94985.72
2018-09-05T22:55:25.709Z,94983.97
2018-09-05T22:58:14.773Z,94980.84
2018-09-05T23:01:35.458Z,94981.73
2018-09-05T23:04:15.056Z,94974.71
2018-09-05T23:06:57.376Z,94970.86
2018-09-05T23:09:36.952Z,94972.88
2018-09-05T23:12:30.133Z,94965.51
2018-09-05T23:15:09.563Z,94967.25
2018-09-05T23:17:49.289Z,94957.55
2018-09-05T23:20:37.013Z,94959.73
2018-09-05T23:23:16.663Z,94955.66
2018-09-05T23:25:45.606Z,94961.09
2018-09-05T23:28:14.459Z,94951.92
2018-09-05T23:30:42.977Z,94951.95
2018-09-05T23:35:53.702Z,94949.08
2018-09-05T23:38:22.265Z,94946.70
2018-09-05T23:40:51.043Z,94948.88
2018-09-05T23:43:19.472Z,94942.95
2018-09-05T23:45:47.783Z,94949.19
2018-09-05T23:48:16.188Z,94948.23
2018-09-05T23:50:44.464Z,94950.44
2018-09-05T23:53:12.841Z,94946.14
2018-09-05T23:55:41.231Z,94943.93
2018-09-05T23:58:09.660Z,94943.57
